sensor_id;sensor_type;location;lat;lon;timestamp;P1;durP1;ratioP1;P2;durP2;ratioP2
12816;SDS011;6473;51.552;6.716;2023-04-24T00:01:36;1.23;;;1.20;;
12816;SDS011;6473;51.552;6.716;2023-04-24T00:04:05;1.40;;;1.30;;
12816;SDS011;6473;51.552;6.716;2023-04-24T00:06:36;2.15;;;1.67;;
12816;SDS011;6473;51.552;6.716;2023-04-24T00:09:03;1.40;;;1.30;;
12816;SDS011;6473;51.552;6.716;2023-04-24T00:11:30;1.50;;;1.40;;
12816;SDS011;6473;51.552;6.716;2023-04-24T00:13:57;1.85;;;1.70;;
12816;SDS011;6473;51.552;6.716;2023-04-24T00:16:23;1.77;;;1.67;;
12816;SDS011;6473;51.552;6.716;2023-04-24T00:18:50;1.65;;;1.55;;
12816;SDS011;6473;51.552;6.716;2023-04-24T00:21:19;2.47;;;2.05;;
12816;SDS011;6473;51.552;6.716;2023-04-24T00:23:46;2.17;;;1.98;;
12816;SDS011;6473;51.552;6.716;2023-04-24T00:26:13;2.05;;;1.95;;
12816;SDS011;6473;51.552;6.716;2023-04-24T00:28:40;1.98;;;1.88;;
12816;SDS011;6473;51.552;6.716;2023-04-24T00:31:07;2.05;;;1.85;;
12816;SDS011;6473;51.552;6.716;2023-04-24T00:33:34;2.38;;;2.10;;
12816;SDS011;6473;51.552;6.716;2023-04-24T00:36:02;2.28;;;2.05;;
12816;SDS011;6473;51.552;6.716;2023-04-24T00:38:30;2.20;;;2.00;;
12816;SDS011;6473;51.552;6.716;2023-04-24T00:40:57;2.40;;;2.20;;
12816;SDS011;6473;51.552;6.716;2023-04-24T00:43:24;2.47;;;2.28;;
12816;SDS011;6473;51.552;6.716;2023-04-24T00:45:52;2.47;;;2.28;;
12816;SDS011;6473;51.552;6.716;2023-04-24T00:48:19;2.53;;;2.33;;
12816;SDS011;6473;51.552;6.716;2023-04-24T00:50:47;3.60;;;2.33;;
12816;SDS011;6473;51.552;6.716;2023-04-24T00:53:14;3.70;;;2.33;;
12816;SDS011;6473;51.552;6.716;2023-04-24T00:55:42;2.75;;;2.38;;
12816;SDS011;6473;51.552;6.716;2023-04-24T00:58:09;2.55;;;2.10;;
12816;SDS011;6473;51.552;6.716;2023-04-24T01:00:36;4.75;;;2.67;;
12816;SDS011;6473;51.552;6.716;2023-04-24T01:05:32;4.13;;;3.10;;
12816;SDS011;6473;51.552;6.716;2023-04-24T01:07:59;3.55;;;2.90;;
12816;SDS011;6473;51.552;6.716;2023-04-24T01:10:28;3.10;;;2.80;;
12816;SDS011;6473;51.552;6.716;2023-04-24T01:12:58;4.10;;;3.20;;
12816;SDS011;6473;51.552;6.716;2023-04-24T01:15:25;5.32;;;3.63;;
12816;SDS011;6473;51.552;6.716;2023-04-24T01:17:53;5.85;;;3.67;;
12816;SDS011;6473;51.552;6.716;2023-04-24T01:20:20;3.90;;;3.60;;
12816;SDS011;6473;51.552;6.716;2023-04-24T01:22:49;3.67;;;3.30;;
12816;SDS011;6473;51.552;6.716;2023-04-24T01:25:16;4.20;;;3.50;;
12816;SDS011;6473;51.552;6.716;2023-04-24T01:27:43;4.05;;;3.75;;
12816;SDS011;6473;51.552;6.716;2023-04-24T01:30:11;5.57;;;3.80;;
12816;SDS011;6473;51.552;6.716;2023-04-24T01:32:38;4.88;;;4.32;;
12816;SDS011;6473;51.552;6.716;2023-04-24T01:35:06;4.93;;;3.85;;
12816;SDS011;6473;51.552;6.716;2023-04-24T01:37:33;4.65;;;4.05;;
12816;SDS011;6473;51.552;6.716;2023-04-24T01:40:04;5.40;;;4.18;;
12816;SDS011;6473;51.552;6.716;2023-04-24T01:42:32;4.80;;;4.30;;
12816;SDS011;6473;51.552;6.716;2023-04-24T01:45:01;5.30;;;4.20;;
12816;SDS011;6473;51.552;6.716;2023-04-24T01:47:30;5.65;;;4.35;;
12816;SDS011;6473;51.552;6.716;2023-04-24T01:49:57;5.65;;;4.47;;
12816;SDS011;6473;51.552;6.716;2023-04-24T01:52:25;7.07;;;5.07;;
12816;SDS011;6473;51.552;6.716;2023-04-24T01:54:52;5.65;;;4.85;;
12816;SDS011;6473;51.552;6.716;2023-04-24T01:57:23;6.28;;;5.55;;
12816;SDS011;6473;51.552;6.716;2023-04-24T01:59:50;5.93;;;5.10;;
12816;SDS011;6473;51.552;6.716;2023-04-24T02:02:17;8.82;;;5.07;;
12816;SDS011;6473;51.552;6.716;2023-04-24T02:04:46;7.60;;;5.30;;
12816;SDS011;6473;51.552;6.716;2023-04-24T02:07:13;8.88;;;5.13;;
12816;SDS011;6473;51.552;6.716;2023-04-24T02:09:40;7.68;;;6.00;;
12816;SDS011;6473;51.552;6.716;2023-04-24T02:12:07;6.03;;;5.30;;
12816;SDS011;6473;51.552;6.716;2023-04-24T02:14:36;6.05;;;5.45;;
12816;SDS011;6473;51.552;6.716;2023-04-24T02:17:03;6.13;;;5.15;;
12816;SDS011;6473;51.552;6.716;2023-04-24T02:19:31;6.90;;;5.20;;
12816;SDS011;6473;51.552;6.716;2023-04-24T02:21:58;6.65;;;5.47;;
12816;SDS011;6473;51.552;6.716;2023-04-24T02:24:26;6.75;;;5.75;;
12816;SDS011;6473;51.552;6.716;2023-04-24T02:26:53;8.05;;;5.85;;
12816;SDS011;6473;51.552;6.716;2023-04-24T02:29:20;8.40;;;6.32;;
12816;SDS011;6473;51.552;6.716;2023-04-24T02:31:50;9.18;;;6.47;;
12816;SDS011;6473;51.552;6.716;2023-04-24T02:34:17;9.15;;;6.80;;
12816;SDS011;6473;51.552;6.716;2023-04-24T02:36:44;11.23;;;7.00;;
12816;SDS011;6473;51.552;6.716;2023-04-24T02:39:11;11.25;;;7.05;;
12816;SDS011;6473;51.552;6.716;2023-04-24T02:41:39;8.68;;;7.20;;
12816;SDS011;6473;51.552;6.716;2023-04-24T02:44:07;9.02;;;7.47;;
12816;SDS011;6473;51.552;6.716;2023-04-24T02:46:34;8.68;;;7.20;;
12816;SDS011;6473;51.552;6.716;2023-04-24T02:49:03;9.60;;;7.50;;
12816;SDS011;6473;51.552;6.716;2023-04-24T02:51:30;10.27;;;7.75;;
12816;SDS011;6473;51.552;6.716;2023-04-24T02:53:57;9.00;;;7.90;;
12816;SDS011;6473;51.552;6.716;2023-04-24T02:56:24;10.98;;;8.35;;
12816;SDS011;6473;51.552;6.716;2023-04-24T02:58:51;8.95;;;7.50;;
12816;SDS011;6473;51.552;6.716;2023-04-24T03:01:18;11.88;;;8.82;;
12816;SDS011;6473;51.552;6.716;2023-04-24T03:03:45;10.85;;;8.85;;
12816;SDS011;6473;51.552;6.716;2023-04-24T03:06:13;10.43;;;8.13;;
12816;SDS011;6473;51.552;6.716;2023-04-24T03:08:40;14.30;;;9.00;;
12816;SDS011;6473;51.552;6.716;2023-04-24T03:11:10;10.70;;;9.13;;
12816;SDS011;6473;51.552;6.716;2023-04-24T03:13:37;10.13;;;8.45;;
12816;SDS011;6473;51.552;6.716;2023-04-24T03:16:04;14.18;;;8.45;;
12816;SDS011;6473;51.552;6.716;2023-04-24T03:18:31;9.65;;;8.65;;
12816;SDS011;6473;51.552;6.716;2023-04-24T03:20:58;11.30;;;8.55;;
12816;SDS011;6473;51.552;6.716;2023-04-24T03:23:26;11.43;;;8.65;;
12816;SDS011;6473;51.552;6.716;2023-04-24T03:25:53;11.95;;;9.07;;
12816;SDS011;6473;51.552;6.716;2023-04-24T03:28:20;12.50;;;9.70;;
12816;SDS011;6473;51.552;6.716;2023-04-24T03:30:54;10.70;;;9.18;;
12816;SDS011;6473;51.552;6.716;2023-04-24T03:33:27;14.98;;;9.88;;
12816;SDS011;6473;51.552;6.716;2023-04-24T03:36:13;13.43;;;9.82;;
12816;SDS011;6473;51.552;6.716;2023-04-24T03:38:42;13.43;;;9.38;;
12816;SDS011;6473;51.552;6.716;2023-04-24T03:41:20;14.23;;;9.98;;
12816;SDS011;6473;51.552;6.716;2023-04-24T03:43:50;12.15;;;9.20;;
12816;SDS011;6473;51.552;6.716;2023-04-24T03:46:17;15.57;;;9.43;;
12816;SDS011;6473;51.552;6.716;2023-04-24T03:48:51;12.25;;;9.13;;
12816;SDS011;6473;51.552;6.716;2023-04-24T03:51:21;13.02;;;9.68;;
12816;SDS011;6473;51.552;6.716;2023-04-24T03:53:53;13.10;;;9.07;;
12816;SDS011;6473;51.552;6.716;2023-04-24T03:56:21;11.68;;;10.10;;
12816;SDS011;6473;51.552;6.716;2023-04-24T03:58:48;12.52;;;9.02;;
12816;SDS011;6473;51.552;6.716;2023-04-24T04:01:15;14.35;;;9.68;;
12816;SDS011;6473;51.552;6.716;2023-04-24T04:03:53;10.68;;;9.52;;
12816;SDS011;6473;51.552;6.716;2023-04-24T04:06:23;12.45;;;9.90;;
12816;SDS011;6473;51.552;6.716;2023-04-24T04:08:53;13.18;;;9.43;;
12816;SDS011;6473;51.552;6.716;2023-04-24T04:11:20;11.52;;;9.68;;
12816;SDS011;6473;51.552;6.716;2023-04-24T04:13:47;12.95;;;9.60;;
12816;SDS011;6473;51.552;6.716;2023-04-24T04:16:17;11.32;;;9.05;;
12816;SDS011;6473;51.552;6.716;2023-04-24T04:18:47;14.82;;;9.57;;
12816;SDS011;6473;51.552;6.716;2023-04-24T04:21:14;11.48;;;9.32;;
12816;SDS011;6473;51.552;6.716;2023-04-24T04:23:42;16.00;;;9.80;;
12816;SDS011;6473;51.552;6.716;2023-04-24T04:26:24;13.45;;;9.27;;
12816;SDS011;6473;51.552;6.716;2023-04-24T04:29:07;12.43;;;9.38;;
12816;SDS011;6473;51.552;6.716;2023-04-24T04:31:38;12.82;;;9.38;;
12816;SDS011;6473;51.552;6.716;2023-04-24T04:34:09;11.75;;;8.52;;
12816;SDS011;6473;51.552;6.716;2023-04-24T04:36:37;15.15;;;9.27;;
12816;SDS011;6473;51.552;6.716;2023-04-24T04:39:18;10.43;;;8.60;;
12816;SDS011;6473;51.552;6.716;2023-04-24T04:42:00;10.43;;;8.57;;
12816;SDS011;6473;51.552;6.716;2023-04-24T04:44:34;11.90;;;9.43;;
12816;SDS011;6473;51.552;6.716;2023-04-24T04:47:20;11.10;;;8.77;;
12816;SDS011;6473;51.552;6.716;2023-04-24T04:49:49;12.35;;;8.05;;
12816;SDS011;6473;51.552;6.716;2023-04-24T04:52:20;9.52;;;8.40;;
12816;SDS011;6473;51.552;6.716;2023-04-24T04:54:53;9.75;;;8.20;;
12816;SDS011;6473;51.552;6.716;2023-04-24T04:57:27;9.43;;;7.90;;
12816;SDS011;6473;51.552;6.716;2023-04-24T04:59:55;12.65;;;8.30;;
12816;SDS011;6473;51.552;6.716;2023-04-24T05:02:36;10.50;;;8.25;;
12816;SDS011;6473;51.552;6.716;2023-04-24T05:05:04;10.55;;;8.30;;
12816;SDS011;6473;51.552;6.716;2023-04-24T05:07:31;9.90;;;8.48;;
12816;SDS011;6473;51.552;6.716;2023-04-24T05:09:58;10.52;;;7.65;;
12816;SDS011;6473;51.552;6.716;2023-04-24T05:12:25;7.30;;;6.25;;
12816;SDS011;6473;51.552;6.716;2023-04-24T05:14:54;8.40;;;6.50;;
12816;SDS011;6473;51.552;6.716;2023-04-24T05:17:21;7.57;;;6.88;;
12816;SDS011;6473;51.552;6.716;2023-04-24T05:19:49;9.25;;;7.15;;
12816;SDS011;6473;51.552;6.716;2023-04-24T05:22:17;7.35;;;6.25;;
12816;SDS011;6473;51.552;6.716;2023-04-24T05:24:50;7.00;;;6.30;;
12816;SDS011;6473;51.552;6.716;2023-04-24T05:27:32;10.57;;;6.95;;
12816;SDS011;6473;51.552;6.716;2023-04-24T05:30:02;7.47;;;6.75;;
12816;SDS011;6473;51.552;6.716;2023-04-24T05:32:30;9.70;;;6.85;;
12816;SDS011;6473;51.552;6.716;2023-04-24T05:34:57;8.70;;;6.07;;
12816;SDS011;6473;51.552;6.716;2023-04-24T05:37:24;8.40;;;6.75;;
12816;SDS011;6473;51.552;6.716;2023-04-24T05:39:52;8.00;;;6.22;;
12816;SDS011;6473;51.552;6.716;2023-04-24T05:42:19;7.18;;;6.10;;
12816;SDS011;6473;51.552;6.716;2023-04-24T05:44:46;7.00;;;6.28;;
12816;SDS011;6473;51.552;6.716;2023-04-24T05:47:15;7.28;;;6.28;;
12816;SDS011;6473;51.552;6.716;2023-04-24T05:49:42;6.90;;;6.20;;
12816;SDS011;6473;51.552;6.716;2023-04-24T05:52:09;7.53;;;6.78;;
12816;SDS011;6473;51.552;6.716;2023-04-24T05:54:37;7.53;;;6.72;;
12816;SDS011;6473;51.552;6.716;2023-04-24T05:57:05;8.25;;;6.95;;
12816;SDS011;6473;51.552;6.716;2023-04-24T05:59:47;7.85;;;6.70;;
12816;SDS011;6473;51.552;6.716;2023-04-24T06:02:15;10.45;;;7.57;;
12816;SDS011;6473;51.552;6.716;2023-04-24T06:04:43;8.60;;;7.60;;
12816;SDS011;6473;51.552;6.716;2023-04-24T06:07:10;9.48;;;8.43;;
12816;SDS011;6473;51.552;6.716;2023-04-24T06:09:38;11.93;;;9.25;;
12816;SDS011;6473;51.552;6.716;2023-04-24T06:12:05;10.27;;;8.63;;
12816;SDS011;6473;51.552;6.716;2023-04-24T06:14:48;10.02;;;8.57;;
12816;SDS011;6473;51.552;6.716;2023-04-24T06:17:20;10.93;;;8.25;;
12816;SDS011;6473;51.552;6.716;2023-04-24T06:19:47;10.57;;;8.70;;
12816;SDS011;6473;51.552;6.716;2023-04-24T06:22:14;11.85;;;9.10;;
12816;SDS011;6473;51.552;6.716;2023-04-24T06:24:41;10.52;;;8.82;;
12816;SDS011;6473;51.552;6.716;2023-04-24T06:27:08;10.82;;;9.40;;
12816;SDS011;6473;51.552;6.716;2023-04-24T06:29:35;11.15;;;8.95;;
12816;SDS011;6473;51.552;6.716;2023-04-24T06:32:03;9.70;;;8.52;;
12816;SDS011;6473;51.552;6.716;2023-04-24T06:34:32;11.63;;;9.32;;
12816;SDS011;6473;51.552;6.716;2023-04-24T06:37:00;13.57;;;9.65;;
12816;SDS011;6473;51.552;6.716;2023-04-24T06:39:27;13.80;;;9.13;;
12816;SDS011;6473;51.552;6.716;2023-04-24T06:41:54;11.73;;;9.25;;
12816;SDS011;6473;51.552;6.716;2023-04-24T06:44:22;9.23;;;7.90;;
12816;SDS011;6473;51.552;6.716;2023-04-24T06:46:50;9.25;;;7.55;;
12816;SDS011;6473;51.552;6.716;2023-04-24T06:49:16;12.75;;;8.30;;
12816;SDS011;6473;51.552;6.716;2023-04-24T06:51:46;9.60;;;7.88;;
12816;SDS011;6473;51.552;6.716;2023-04-24T06:54:13;8.40;;;7.57;;
12816;SDS011;6473;51.552;6.716;2023-04-24T06:56:39;7.93;;;7.13;;
12816;SDS011;6473;51.552;6.716;2023-04-24T06:59:06;7.55;;;6.57;;
12816;SDS011;6473;51.552;6.716;2023-04-24T07:01:33;6.63;;;5.57;;
12816;SDS011;6473;51.552;6.716;2023-04-24T07:04:00;7.90;;;5.70;;
12816;SDS011;6473;51.552;6.716;2023-04-24T07:06:26;5.88;;;5.30;;
12816;SDS011;6473;51.552;6.716;2023-04-24T07:08:58;5.80;;;4.80;;
12816;SDS011;6473;51.552;6.716;2023-04-24T07:11:25;4.60;;;4.20;;
12816;SDS011;6473;51.552;6.716;2023-04-24T07:13:54;4.60;;;4.20;;
12816;SDS011;6473;51.552;6.716;2023-04-24T07:16:21;4.88;;;4.20;;
12816;SDS011;6473;51.552;6.716;2023-04-24T07:18:48;5.47;;;3.83;;
12816;SDS011;6473;51.552;6.716;2023-04-24T07:21:14;4.65;;;3.63;;
12816;SDS011;6473;51.552;6.716;2023-04-24T07:23:41;3.50;;;3.03;;
12816;SDS011;6473;51.552;6.716;2023-04-24T07:26:09;3.95;;;2.80;;
12816;SDS011;6473;51.552;6.716;2023-04-24T07:28:36;2.80;;;2.58;;
12816;SDS011;6473;51.552;6.716;2023-04-24T07:31:03;2.83;;;2.20;;
12816;SDS011;6473;51.552;6.716;2023-04-24T07:33:30;2.10;;;1.92;;
12816;SDS011;6473;51.552;6.716;2023-04-24T07:35:57;1.85;;;1.75;;
12816;SDS011;6473;51.552;6.716;2023-04-24T07:38:24;1.90;;;1.80;;
12816;SDS011;6473;51.552;6.716;2023-04-24T07:40:51;1.95;;;1.77;;
12816;SDS011;6473;51.552;6.716;2023-04-24T07:43:19;1.80;;;1.55;;
12816;SDS011;6473;51.552;6.716;2023-04-24T07:45:46;1.85;;;1.65;;
12816;SDS011;6473;51.552;6.716;2023-04-24T07:48:14;2.03;;;1.58;;
12816;SDS011;6473;51.552;6.716;2023-04-24T07:50:41;1.90;;;1.80;;
12816;SDS011;6473;51.552;6.716;2023-04-24T07:53:08;1.88;;;1.77;;
12816;SDS011;6473;51.552;6.716;2023-04-24T07:55:35;1.90;;;1.70;;
12816;SDS011;6473;51.552;6.716;2023-04-24T07:58:02;2.22;;;1.95;;
12816;SDS011;6473;51.552;6.716;2023-04-24T08:00:30;1.95;;;1.85;;
12816;SDS011;6473;51.552;6.716;2023-04-24T08:02:57;2.10;;;1.90;;
12816;SDS011;6473;51.552;6.716;2023-04-24T08:05:24;2.00;;;1.90;;
12816;SDS011;6473;51.552;6.716;2023-04-24T08:07:52;3.05;;;2.33;;
12816;SDS011;6473;51.552;6.716;2023-04-24T08:10:20;2.13;;;1.90;;
12816;SDS011;6473;51.552;6.716;2023-04-24T08:12:47;1.73;;;1.63;;
12816;SDS011;6473;51.552;6.716;2023-04-24T08:15:14;1.98;;;1.77;;
12816;SDS011;6473;51.552;6.716;2023-04-24T08:17:42;1.90;;;1.80;;
12816;SDS011;6473;51.552;6.716;2023-04-24T08:20:10;1.77;;;1.67;;
12816;SDS011;6473;51.552;6.716;2023-04-24T08:22:38;1.75;;;1.65;;
12816;SDS011;6473;51.552;6.716;2023-04-24T08:25:05;2.05;;;1.88;;
12816;SDS011;6473;51.552;6.716;2023-04-24T08:27:33;2.58;;;2.20;;
12816;SDS011;6473;51.552;6.716;2023-04-24T08:30:02;2.10;;;2.00;;
12816;SDS011;6473;51.552;6.716;2023-04-24T08:32:30;2.20;;;2.00;;
12816;SDS011;6473;51.552;6.716;2023-04-24T08:34:58;2.30;;;2.10;;
12816;SDS011;6473;51.552;6.716;2023-04-24T08:37:26;3.05;;;1.70;;
12816;SDS011;6473;51.552;6.716;2023-04-24T08:39:53;2.78;;;2.20;;
12816;SDS011;6473;51.552;6.716;2023-04-24T08:42:21;2.50;;;1.80;;
12816;SDS011;6473;51.552;6.716;2023-04-24T08:44:48;1.70;;;1.60;;
12816;SDS011;6473;51.552;6.716;2023-04-24T08:47:15;1.67;;;1.50;;
12816;SDS011;6473;51.552;6.716;2023-04-24T08:49:42;1.23;;;1.23;;
12816;SDS011;6473;51.552;6.716;2023-04-24T08:52:11;1.95;;;1.60;;
12816;SDS011;6473;51.552;6.716;2023-04-24T08:54:39;1.88;;;1.50;;
12816;SDS011;6473;51.552;6.716;2023-04-24T08:57:08;1.55;;;1.45;;
12816;SDS011;6473;51.552;6.716;2023-04-24T08:59:36;2.40;;;1.60;;
12816;SDS011;6473;51.552;6.716;2023-04-24T09:02:04;2.78;;;1.90;;
12816;SDS011;6473;51.552;6.716;2023-04-24T09:04:33;1.70;;;1.60;;
12816;SDS011;6473;51.552;6.716;2023-04-24T09:07:00;1.90;;;1.80;;
12816;SDS011;6473;51.552;6.716;2023-04-24T09:09:31;3.60;;;3.30;;
12816;SDS011;6473;51.552;6.716;2023-04-24T09:11:59;4.53;;;4.13;;
12816;SDS011;6473;51.552;6.716;2023-04-24T09:14:27;4.20;;;3.88;;
12816;SDS011;6473;51.552;6.716;2023-04-24T09:16:57;4.10;;;3.70;;
12816;SDS011;6473;51.552;6.716;2023-04-24T09:19:24;4.43;;;4.03;;
12816;SDS011;6473;51.552;6.716;2023-04-24T09:21:51;3.40;;;3.10;;
12816;SDS011;6473;51.552;6.716;2023-04-24T09:24:20;3.53;;;3.22;;
12816;SDS011;6473;51.552;6.716;2023-04-24T09:26:55;5.20;;;4.72;;
12816;SDS011;6473;51.552;6.716;2023-04-24T09:29:23;4.55;;;4.00;;
12816;SDS011;6473;51.552;6.716;2023-04-24T09:31:51;7.53;;;4.95;;
12816;SDS011;6473;51.552;6.716;2023-04-24T09:34:20;5.22;;;4.70;;
12816;SDS011;6473;51.552;6.716;2023-04-24T09:36:49;5.68;;;4.50;;
12816;SDS011;6473;51.552;6.716;2023-04-24T09:39:16;6.10;;;5.13;;
12816;SDS011;6473;51.552;6.716;2023-04-24T09:41:45;5.68;;;5.00;;
12816;SDS011;6473;51.552;6.716;2023-04-24T09:44:14;5.53;;;4.97;;
12816;SDS011;6473;51.552;6.716;2023-04-24T09:46:42;6.68;;;5.70;;
12816;SDS011;6473;51.552;6.716;2023-04-24T09:49:11;6.05;;;5.43;;
12816;SDS011;6473;51.552;6.716;2023-04-24T09:51:40;7.40;;;6.43;;
12816;SDS011;6473;51.552;6.716;2023-04-24T09:54:13;7.47;;;5.90;;
12816;SDS011;6473;51.552;6.716;2023-04-24T09:56:42;9.20;;;7.07;;
12816;SDS011;6473;51.552;6.716;2023-04-24T09:59:10;9.82;;;6.75;;
12816;SDS011;6473;51.552;6.716;2023-04-24T10:01:39;9.15;;;6.25;;
12816;SDS011;6473;51.552;6.716;2023-04-24T10:04:17;6.82;;;5.95;;
12816;SDS011;6473;51.552;6.716;2023-04-24T10:06:45;8.68;;;6.72;;
12816;SDS011;6473;51.552;6.716;2023-04-24T10:09:13;8.02;;;7.03;;
12816;SDS011;6473;51.552;6.716;2023-04-24T10:11:41;10.80;;;7.22;;
12816;SDS011;6473;51.552;6.716;2023-04-24T10:14:10;9.23;;;7.15;;
12816;SDS011;6473;51.552;6.716;2023-04-24T10:16:40;10.82;;;7.28;;
12816;SDS011;6473;51.552;6.716;2023-04-24T10:19:07;10.77;;;6.15;;
12816;SDS011;6473;51.552;6.716;2023-04-24T10:21:34;10.13;;;5.22;;
12816;SDS011;6473;51.552;6.716;2023-04-24T10:24:02;9.52;;;5.97;;
12816;SDS011;6473;51.552;6.716;2023-04-24T10:26:32;8.02;;;5.05;;
12816;SDS011;6473;51.552;6.716;2023-04-24T10:29:00;11.88;;;5.53;;
12816;SDS011;6473;51.552;6.716;2023-04-24T10:31:28;8.98;;;5.28;;
12816;SDS011;6473;51.552;6.716;2023-04-24T10:33:59;12.27;;;5.40;;
12816;SDS011;6473;51.552;6.716;2023-04-24T10:36:27;10.05;;;5.07;;
12816;SDS011;6473;51.552;6.716;2023-04-24T10:38:58;10.77;;;5.38;;
12816;SDS011;6473;51.552;6.716;2023-04-24T10:41:27;16.95;;;5.60;;
12816;SDS011;6473;51.552;6.716;2023-04-24T10:44:05;8.77;;;5.00;;
12816;SDS011;6473;51.552;6.716;2023-04-24T10:46:33;8.50;;;4.82;;
12816;SDS011;6473;51.552;6.716;2023-04-24T10:49:01;9.75;;;5.43;;
12816;SDS011;6473;51.552;6.716;2023-04-24T10:51:44;8.57;;;4.90;;
12816;SDS011;6473;51.552;6.716;2023-04-24T11:02:50;9.85;;;4.50;;
12816;SDS011;6473;51.552;6.716;2023-04-24T11:05:21;9.65;;;4.53;;
12816;SDS011;6473;51.552;6.716;2023-04-24T11:10:40;11.43;;;3.72;;
12816;SDS011;6473;51.552;6.716;2023-04-24T11:13:12;9.25;;;4.85;;
12816;SDS011;6473;51.552;6.716;2023-04-24T11:15:41;9.00;;;3.88;;
12816;SDS011;6473;51.552;6.716;2023-04-24T11:18:12;5.60;;;3.20;;
12816;SDS011;6473;51.552;6.716;2023-04-24T11:20:43;5.68;;;3.65;;
12816;SDS011;6473;51.552;6.716;2023-04-24T11:23:11;5.43;;;3.75;;
12816;SDS011;6473;51.552;6.716;2023-04-24T11:25:39;5.53;;;3.30;;
12816;SDS011;6473;51.552;6.716;2023-04-24T11:28:06;3.75;;;2.97;;
12816;SDS011;6473;51.552;6.716;2023-04-24T11:30:33;5.38;;;2.90;;
12816;SDS011;6473;51.552;6.716;2023-04-24T11:33:03;6.07;;;3.38;;
12816;SDS011;6473;51.552;6.716;2023-04-24T11:35:34;5.25;;;3.13;;
12816;SDS011;6473;51.552;6.716;2023-04-24T11:38:04;5.80;;;3.13;;
12816;SDS011;6473;51.552;6.716;2023-04-24T11:40:32;8.52;;;3.40;;
12816;SDS011;6473;51.552;6.716;2023-04-24T11:42:59;5.32;;;3.50;;
12816;SDS011;6473;51.552;6.716;2023-04-24T11:45:26;5.30;;;2.78;;
12816;SDS011;6473;51.552;6.716;2023-04-24T11:47:54;4.60;;;2.95;;
12816;SDS011;6473;51.552;6.716;2023-04-24T11:50:21;8.25;;;3.42;;
12816;SDS011;6473;51.552;6.716;2023-04-24T11:52:50;2.88;;;2.35;;
12816;SDS011;6473;51.552;6.716;2023-04-24T11:55:26;4.88;;;2.40;;
12816;SDS011;6473;51.552;6.716;2023-04-24T11:57:55;7.63;;;2.90;;
12816;SDS011;6473;51.552;6.716;2023-04-24T12:00:24;3.90;;;2.50;;
12816;SDS011;6473;51.552;6.716;2023-04-24T12:03:03;4.32;;;2.55;;
12816;SDS011;6473;51.552;6.716;2023-04-24T12:05:38;8.50;;;2.70;;
12816;SDS011;6473;51.552;6.716;2023-04-24T12:08:05;6.28;;;3.00;;
12816;SDS011;6473;51.552;6.716;2023-04-24T12:10:34;4.43;;;3.00;;
12816;SDS011;6473;51.552;6.716;2023-04-24T12:13:01;3.92;;;2.88;;
12816;SDS011;6473;51.552;6.716;2023-04-24T12:15:28;4.38;;;2.50;;
12816;SDS011;6473;51.552;6.716;2023-04-24T12:17:55;3.05;;;2.28;;
12816;SDS011;6473;51.552;6.716;2023-04-24T12:20:24;2.97;;;2.67;;
12816;SDS011;6473;51.552;6.716;2023-04-24T12:22:53;4.25;;;2.35;;
12816;SDS011;6473;51.552;6.716;2023-04-24T12:25:21;5.85;;;2.75;;
12816;SDS011;6473;51.552;6.716;2023-04-24T12:27:54;5.05;;;2.00;;
12816;SDS011;6473;51.552;6.716;2023-04-24T12:30:39;5.15;;;2.03;;
12816;SDS011;6473;51.552;6.716;2023-04-24T12:33:13;3.00;;;2.00;;
12816;SDS011;6473;51.552;6.716;2023-04-24T12:35:43;2.75;;;2.05;;
12816;SDS011;6473;51.552;6.716;2023-04-24T12:38:11;2.60;;;1.75;;
12816;SDS011;6473;51.552;6.716;2023-04-24T12:40:39;3.40;;;1.70;;
12816;SDS011;6473;51.552;6.716;2023-04-24T12:43:14;2.17;;;1.52;;
12816;SDS011;6473;51.552;6.716;2023-04-24T12:45:41;3.42;;;1.45;;
12816;SDS011;6473;51.552;6.716;2023-04-24T12:48:10;1.80;;;1.70;;
12816;SDS011;6473;51.552;6.716;2023-04-24T12:50:39;2.03;;;1.77;;
12816;SDS011;6473;51.552;6.716;2023-04-24T12:53:06;1.98;;;1.60;;
12816;SDS011;6473;51.552;6.716;2023-04-24T12:55:33;2.05;;;1.80;;
12816;SDS011;6473;51.552;6.716;2023-04-24T12:58:00;2.45;;;2.00;;
12816;SDS011;6473;51.552;6.716;2023-04-24T13:00:29;4.30;;;2.03;;
12816;SDS011;6473;51.552;6.716;2023-04-24T13:02:56;2.38;;;2.00;;
12816;SDS011;6473;51.552;6.716;2023-04-24T13:05:23;2.88;;;2.33;;
12816;SDS011;6473;51.552;6.716;2023-04-24T13:07:50;2.20;;;1.75;;
12816;SDS011;6473;51.552;6.716;2023-04-24T13:10:16;2.10;;;1.80;;
12816;SDS011;6473;51.552;6.716;2023-04-24T13:12:44;3.08;;;1.90;;
12816;SDS011;6473;51.552;6.716;2023-04-24T13:15:11;2.60;;;2.00;;
12816;SDS011;6473;51.552;6.716;2023-04-24T13:17:39;2.72;;;2.53;;
12816;SDS011;6473;51.552;6.716;2023-04-24T13:20:07;2.92;;;1.70;;
12816;SDS011;6473;51.552;6.716;2023-04-24T13:22:34;2.55;;;1.90;;
12816;SDS011;6473;51.552;6.716;2023-04-24T13:25:02;2.78;;;1.30;;
12816;SDS011;6473;51.552;6.716;2023-04-24T13:27:30;5.20;;;1.92;;
12816;SDS011;6473;51.552;6.716;2023-04-24T13:29:57;5.28;;;1.80;;
12816;SDS011;6473;51.552;6.716;2023-04-24T13:32:24;1.92;;;1.70;;
12816;SDS011;6473;51.552;6.716;2023-04-24T13:34:53;3.90;;;1.92;;
12816;SDS011;6473;51.552;6.716;2023-04-24T13:37:20;3.50;;;1.90;;
12816;SDS011;6473;51.552;6.716;2023-04-24T13:39:47;1.90;;;1.70;;
12816;SDS011;6473;51.552;6.716;2023-04-24T13:42:14;2.03;;;1.65;;
12816;SDS011;6473;51.552;6.716;2023-04-24T13:44:41;1.73;;;1.60;;
12816;SDS011;6473;51.552;6.716;2023-04-24T13:47:08;3.25;;;1.48;;
12816;SDS011;6473;51.552;6.716;2023-04-24T13:49:34;4.60;;;1.63;;
12816;SDS011;6473;51.552;6.716;2023-04-24T13:52:03;2.25;;;1.40;;
12816;SDS011;6473;51.552;6.716;2023-04-24T13:54:30;2.47;;;1.80;;
12816;SDS011;6473;51.552;6.716;2023-04-24T13:56:57;1.88;;;1.75;;
12816;SDS011;6473;51.552;6.716;2023-04-24T13:59:25;2.67;;;1.30;;
12816;SDS011;6473;51.552;6.716;2023-04-24T14:01:52;2.70;;;1.58;;
12816;SDS011;6473;51.552;6.716;2023-04-24T14:04:19;5.13;;;1.80;;
12816;SDS011;6473;51.552;6.716;2023-04-24T14:06:46;2.70;;;1.85;;
12816;SDS011;6473;51.552;6.716;2023-04-24T14:09:14;2.28;;;1.70;;
12816;SDS011;6473;51.552;6.716;2023-04-24T14:11:41;2.58;;;2.17;;
12816;SDS011;6473;51.552;6.716;2023-04-24T14:14:08;3.67;;;2.20;;
12816;SDS011;6473;51.552;6.716;2023-04-24T14:16:35;2.60;;;2.10;;
12816;SDS011;6473;51.552;6.716;2023-04-24T14:19:01;6.32;;;2.47;;
12816;SDS011;6473;51.552;6.716;2023-04-24T14:21:30;5.63;;;2.47;;
12816;SDS011;6473;51.552;6.716;2023-04-24T14:23:56;5.22;;;2.75;;
12816;SDS011;6473;51.552;6.716;2023-04-24T14:26:25;3.58;;;2.20;;
12816;SDS011;6473;51.552;6.716;2023-04-24T14:28:52;5.97;;;2.55;;
12816;SDS011;6473;51.552;6.716;2023-04-24T14:31:20;3.60;;;2.60;;
12816;SDS011;6473;51.552;6.716;2023-04-24T14:33:46;3.13;;;2.35;;
12816;SDS011;6473;51.552;6.716;2023-04-24T14:36:13;2.60;;;2.33;;
12816;SDS011;6473;51.552;6.716;2023-04-24T14:38:41;3.13;;;2.13;;
12816;SDS011;6473;51.552;6.716;2023-04-24T14:41:07;1.85;;;1.70;;
12816;SDS011;6473;51.552;6.716;2023-04-24T14:43:38;2.25;;;1.50;;
12816;SDS011;6473;51.552;6.716;2023-04-24T14:46:05;2.35;;;1.73;;
12816;SDS011;6473;51.552;6.716;2023-04-24T14:48:32;1.65;;;1.25;;
12816;SDS011;6473;51.552;6.716;2023-04-24T14:50:59;2.17;;;1.23;;
12816;SDS011;6473;51.552;6.716;2023-04-24T14:53:26;2.42;;;1.27;;
12816;SDS011;6473;51.552;6.716;2023-04-24T14:55:53;1.45;;;1.10;;
12816;SDS011;6473;51.552;6.716;2023-04-24T14:58:20;2.65;;;0.93;;
12816;SDS011;6473;51.552;6.716;2023-04-24T15:00:48;1.10;;;1.00;;
12816;SDS011;6473;51.552;6.716;2023-04-24T15:03:17;0.90;;;0.90;;
12816;SDS011;6473;51.552;6.716;2023-04-24T15:05:45;1.67;;;1.00;;
12816;SDS011;6473;51.552;6.716;2023-04-24T15:08:13;1.40;;;1.00;;
12816;SDS011;6473;51.552;6.716;2023-04-24T15:10:40;2.80;;;1.20;;
12816;SDS011;6473;51.552;6.716;2023-04-24T15:13:07;1.55;;;1.20;;
12816;SDS011;6473;51.552;6.716;2023-04-24T15:15:34;1.60;;;1.25;;
12816;SDS011;6473;51.552;6.716;2023-04-24T15:18:03;1.20;;;1.10;;
12816;SDS011;6473;51.552;6.716;2023-04-24T15:20:30;2.08;;;1.20;;